Canaan, Connecticut
Current Conditions -  °F | °C
As of 9:34 AM on Friday 28 Nov 2014 (Local Time) from KPSF Reporting Station
Scattered Clouds Scattered Clouds  
Wind Chill: 13°   Ceiling: Unl
Heat Index: 24°   Visibility: 10mi
Dew Point: 18°   Wind: 12mph
Humidity: 77%   Direction: 300°WNW
Pressure: 30.06"   Gusts: 23mph
Location:  42.03°N, 73.33°W
Report Text: KPSF 281434Z AUTO 30010G20KT 10SM SCT015 M04/M08 A3006 RMK AO2 T10441078 $
Loading
Personal Weather Stations






























Interactive Weather Map New forecast layout! Learn more

10-Day Weather Forecast

Advertisements
Track Severe Weather on mobile